sensor_id;sensor_type;location;lat;lon;timestamp;temperature;humidity
66576;SHT31;53428;47.686;16.584;2022-10-16T00:01:45;10.68;99.99
66576;SHT31;53428;47.686;16.584;2022-10-16T00:06:45;10.65;99.99
66576;SHT31;53428;47.686;16.584;2022-10-16T00:11:44;10.64;99.99
66576;SHT31;53428;47.686;16.584;2022-10-16T00:16:44;10.57;99.99
66576;SHT31;53428;47.686;16.584;2022-10-16T00:21:43;10.58;99.99
66576;SHT31;53428;47.686;16.584;2022-10-16T00:26:42;10.45;99.99
66576;SHT31;53428;47.686;16.584;2022-10-16T00:31:42;10.38;99.99
66576;SHT31;53428;47.686;16.584;2022-10-16T00:36:41;10.31;99.99
66576;SHT31;53428;47.686;16.584;2022-10-16T00:41:41;10.33;99.99
66576;SHT31;53428;47.686;16.584;2022-10-16T00:46:41;10.33;99.99
66576;SHT31;53428;47.686;16.584;2022-10-16T00:51:53;10.30;99.99
66576;SHT31;53428;47.686;16.584;2022-10-16T00:56:53;10.29;99.99
66576;SHT31;53428;47.686;16.584;2022-10-16T01:01:54;10.24;99.99
66576;SHT31;53428;47.686;16.584;2022-10-16T01:12:16;10.12;99.99
66576;SHT31;53428;47.686;16.584;2022-10-16T01:17:23;10.12;99.99
66576;SHT31;53428;47.686;16.584;2022-10-16T01:22:33;10.23;99.99
66576;SHT31;53428;47.686;16.584;2022-10-16T01:27:35;10.12;99.99
66576;SHT31;53428;47.686;16.584;2022-10-16T01:32:40;10.12;99.99
66576;SHT31;53428;47.686;16.584;2022-10-16T01:37:58;10.16;99.99
66576;SHT31;53428;47.686;16.584;2022-10-16T01:43:12;10.07;99.99
66576;SHT31;53428;47.686;16.584;2022-10-16T01:48:13;10.03;99.99
66576;SHT31;53428;47.686;16.584;2022-10-16T01:53:15;9.96;99.99
66576;SHT31;53428;47.686;16.584;2022-10-16T01:58:15;9.93;99.99
66576;SHT31;53428;47.686;16.584;2022-10-16T02:03:16;9.85;99.99
66576;SHT31;53428;47.686;16.584;2022-10-16T02:08:18;9.85;99.99
66576;SHT31;53428;47.686;16.584;2022-10-16T02:13:26;9.93;99.99
66576;SHT31;53428;47.686;16.584;2022-10-16T02:18:27;9.96;99.99
66576;SHT31;53428;47.686;16.584;2022-10-16T02:23:40;9.89;99.99
66576;SHT31;53428;47.686;16.584;2022-10-16T02:28:47;9.89;99.99
66576;SHT31;53428;47.686;16.584;2022-10-16T02:33:49;9.78;99.99
66576;SHT31;53428;47.686;16.584;2022-10-16T02:38:50;9.79;99.99
66576;SHT31;53428;47.686;16.584;2022-10-16T02:43:49;9.78;99.99
66576;SHT31;53428;47.686;16.584;2022-10-16T02:48:49;9.93;99.99
66576;SHT31;53428;47.686;16.584;2022-10-16T02:53:52;9.90;99.99
66576;SHT31;53428;47.686;16.584;2022-10-16T02:58:51;9.99;99.99
66576;SHT31;53428;47.686;16.584;2022-10-16T03:03:51;10.06;99.99
66576;SHT31;53428;47.686;16.584;2022-10-16T03:08:50;10.02;99.99
66576;SHT31;53428;47.686;16.584;2022-10-16T03:13:49;10.02;99.99
66576;SHT31;53428;47.686;16.584;2022-10-16T03:18:49;10.14;99.99
66576;SHT31;53428;47.686;16.584;2022-10-16T03:23:49;10.16;99.99
66576;SHT31;53428;47.686;16.584;2022-10-16T03:28:48;10.07;99.99
66576;SHT31;53428;47.686;16.584;2022-10-16T03:33:47;10.13;99.99
66576;SHT31;53428;47.686;16.584;2022-10-16T03:38:47;10.20;99.99
66576;SHT31;53428;47.686;16.584;2022-10-16T03:43:46;10.16;99.99
66576;SHT31;53428;47.686;16.584;2022-10-16T03:48:45;10.33;99.99
66576;SHT31;53428;47.686;16.584;2022-10-16T03:53:45;10.30;99.99
66576;SHT31;53428;47.686;16.584;2022-10-16T03:58:44;10.33;99.99
66576;SHT31;53428;47.686;16.584;2022-10-16T04:03:44;10.34;99.99
66576;SHT31;53428;47.686;16.584;2022-10-16T04:08:43;10.34;99.99
66576;SHT31;53428;47.686;16.584;2022-10-16T04:13:43;10.37;99.99
66576;SHT31;53428;47.686;16.584;2022-10-16T04:18:42;10.40;99.99
66576;SHT31;53428;47.686;16.584;2022-10-16T04:23:42;10.34;99.99
66576;SHT31;53428;47.686;16.584;2022-10-16T04:28:42;10.36;99.99
66576;SHT31;53428;47.686;16.584;2022-10-16T04:33:43;10.48;99.99
66576;SHT31;53428;47.686;16.584;2022-10-16T04:38:42;10.57;99.99
66576;SHT31;53428;47.686;16.584;2022-10-16T04:43:41;10.61;99.99
66576;SHT31;53428;47.686;16.584;2022-10-16T04:48:40;10.68;99.99
66576;SHT31;53428;47.686;16.584;2022-10-16T04:53:40;10.68;99.99
66576;SHT31;53428;47.686;16.584;2022-10-16T04:58:39;10.62;99.99
66576;SHT31;53428;47.686;16.584;2022-10-16T05:03:38;10.65;99.99
66576;SHT31;53428;47.686;16.584;2022-10-16T05:08:37;10.68;99.99
66576;SHT31;53428;47.686;16.584;2022-10-16T05:13:37;10.61;99.99
66576;SHT31;53428;47.686;16.584;2022-10-16T05:18:36;10.65;99.99
66576;SHT31;53428;47.686;16.584;2022-10-16T05:23:35;10.71;99.99
66576;SHT31;53428;47.686;16.584;2022-10-16T05:28:34;10.82;99.99
66576;SHT31;53428;47.686;16.584;2022-10-16T05:33:34;10.92;99.99
66576;SHT31;53428;47.686;16.584;2022-10-16T05:38:34;10.85;99.99
66576;SHT31;53428;47.686;16.584;2022-10-16T05:43:34;10.81;99.99
66576;SHT31;53428;47.686;16.584;2022-10-16T05:48:33;10.78;99.99
66576;SHT31;53428;47.686;16.584;2022-10-16T05:53:34;10.69;99.99
66576;SHT31;53428;47.686;16.584;2022-10-16T05:58:36;10.82;99.99
66576;SHT31;53428;47.686;16.584;2022-10-16T06:03:36;10.65;99.99
66576;SHT31;53428;47.686;16.584;2022-10-16T06:08:35;10.79;99.99
66576;SHT31;53428;47.686;16.584;2022-10-16T06:13:34;10.83;99.99
66576;SHT31;53428;47.686;16.584;2022-10-16T06:18:34;10.93;99.99
66576;SHT31;53428;47.686;16.584;2022-10-16T06:23:33;10.91;99.99
66576;SHT31;53428;47.686;16.584;2022-10-16T06:28:32;11.10;99.99
66576;SHT31;53428;47.686;16.584;2022-10-16T06:33:32;11.13;99.99
66576;SHT31;53428;47.686;16.584;2022-10-16T06:38:32;11.54;99.99
66576;SHT31;53428;47.686;16.584;2022-10-16T06:43:32;11.54;99.99
66576;SHT31;53428;47.686;16.584;2022-10-16T06:48:31;11.44;99.99
66576;SHT31;53428;47.686;16.584;2022-10-16T06:53:33;11.50;99.99
66576;SHT31;53428;47.686;16.584;2022-10-16T06:58:33;11.47;99.99
66576;SHT31;53428;47.686;16.584;2022-10-16T07:03:33;11.81;99.81
66576;SHT31;53428;47.686;16.584;2022-10-16T07:08:33;11.87;98.39
66576;SHT31;53428;47.686;16.584;2022-10-16T07:13:37;12.32;98.87
66576;SHT31;53428;47.686;16.584;2022-10-16T07:18:37;12.19;97.84
66576;SHT31;53428;47.686;16.584;2022-10-16T07:23:41;12.64;96.82
66576;SHT31;53428;47.686;16.584;2022-10-16T07:28:42;11.99;98.21
66576;SHT31;53428;47.686;16.584;2022-10-16T07:33:43;12.36;99.00
66576;SHT31;53428;47.686;16.584;2022-10-16T07:38:44;12.30;99.19
66576;SHT31;53428;47.686;16.584;2022-10-16T07:43:48;12.57;99.42
66576;SHT31;53428;47.686;16.584;2022-10-16T07:48:48;12.47;97.69
66576;SHT31;53428;47.686;16.584;2022-10-16T07:53:48;12.43;99.64
66576;SHT31;53428;47.686;16.584;2022-10-16T07:58:47;12.63;97.98
66576;SHT31;53428;47.686;16.584;2022-10-16T08:03:50;12.70;97.67
66576;SHT31;53428;47.686;16.584;2022-10-16T08:08:50;12.85;98.84
66576;SHT31;53428;47.686;16.584;2022-10-16T08:13:49;13.36;96.65
66576;SHT31;53428;47.686;16.584;2022-10-16T08:18:49;13.46;95.80
66576;SHT31;53428;47.686;16.584;2022-10-16T08:23:50;13.83;96.40
66576;SHT31;53428;47.686;16.584;2022-10-16T08:28:50;14.48;92.46
66576;SHT31;53428;47.686;16.584;2022-10-16T08:33:50;14.36;93.83
66576;SHT31;53428;47.686;16.584;2022-10-16T08:38:51;14.13;93.93
66576;SHT31;53428;47.686;16.584;2022-10-16T08:49:35;14.46;93.52
66576;SHT31;53428;47.686;16.584;2022-10-16T08:54:37;15.03;92.02
66576;SHT31;53428;47.686;16.584;2022-10-16T08:59:40;15.44;90.88
66576;SHT31;53428;47.686;16.584;2022-10-16T09:04:46;15.47;90.11
66576;SHT31;53428;47.686;16.584;2022-10-16T09:09:56;15.93;89.95
66576;SHT31;53428;47.686;16.584;2022-10-16T09:15:35;16.07;88.64
66576;SHT31;53428;47.686;16.584;2022-10-16T09:20:45;16.30;87.84
66576;SHT31;53428;47.686;16.584;2022-10-16T09:25:48;15.78;89.78
66576;SHT31;53428;47.686;16.584;2022-10-16T09:30:48;16.09;88.54
66576;SHT31;53428;47.686;16.584;2022-10-16T09:35:50;16.16;88.54
66576;SHT31;53428;47.686;16.584;2022-10-16T09:40:50;16.51;87.19
66576;SHT31;53428;47.686;16.584;2022-10-16T09:51:33;16.92;86.41
66576;SHT31;53428;47.686;16.584;2022-10-16T09:56:35;17.23;86.59
66576;SHT31;53428;47.686;16.584;2022-10-16T10:01:44;17.92;84.14
66576;SHT31;53428;47.686;16.584;2022-10-16T10:06:51;18.18;83.35
66576;SHT31;53428;47.686;16.584;2022-10-16T10:11:59;18.73;82.13
66576;SHT31;53428;47.686;16.584;2022-10-16T10:22:42;19.10;81.47
66576;SHT31;53428;47.686;16.584;2022-10-16T10:28:03;20.04;78.43
66576;SHT31;53428;47.686;16.584;2022-10-16T10:33:09;20.49;76.51
66576;SHT31;53428;47.686;16.584;2022-10-16T10:38:27;21.08;75.17
66576;SHT31;53428;47.686;16.584;2022-10-16T10:54:32;22.03;71.25
66576;SHT31;53428;47.686;16.584;2022-10-16T11:05:02;21.99;70.35
66576;SHT31;53428;47.686;16.584;2022-10-16T11:10:14;21.79;69.90
66576;SHT31;53428;47.686;16.584;2022-10-16T11:15:16;23.09;66.65
66576;SHT31;53428;47.686;16.584;2022-10-16T11:20:50;24.11;63.96
66576;SHT31;53428;47.686;16.584;2022-10-16T11:25:48;25.18;60.67
66576;SHT31;53428;47.686;16.584;2022-10-16T11:31:11;25.35;61.28
66576;SHT31;53428;47.686;16.584;2022-10-16T11:41:34;26.30;58.23
66576;SHT31;53428;47.686;16.584;2022-10-16T11:46:37;27.05;56.11
66576;SHT31;53428;47.686;16.584;2022-10-16T11:51:45;26.33;57.70
66576;SHT31;53428;47.686;16.584;2022-10-16T11:56:50;26.51;56.31
66576;SHT31;53428;47.686;16.584;2022-10-16T12:02:07;26.04;57.40
66576;SHT31;53428;47.686;16.584;2022-10-16T12:07:17;27.34;54.41
66576;SHT31;53428;47.686;16.584;2022-10-16T12:17:37;27.05;54.83
66576;SHT31;53428;47.686;16.584;2022-10-16T12:22:41;26.95;54.81
66576;SHT31;53428;47.686;16.584;2022-10-16T12:33:35;28.69;50.61
66576;SHT31;53428;47.686;16.584;2022-10-16T12:38:48;27.16;53.65
66576;SHT31;53428;47.686;16.584;2022-10-16T12:43:48;26.67;54.49
66576;SHT31;53428;47.686;16.584;2022-10-16T12:48:47;26.82;53.75
66576;SHT31;53428;47.686;16.584;2022-10-16T13:09:31;28.66;50.47
66576;SHT31;53428;47.686;16.584;2022-10-16T13:29:59;28.33;51.22
66576;SHT31;53428;47.686;16.584;2022-10-16T13:34:59;27.50;52.46
66576;SHT31;53428;47.686;16.584;2022-10-16T13:40:20;27.06;52.44
66576;SHT31;53428;47.686;16.584;2022-10-16T13:45:22;27.57;51.79
66576;SHT31;53428;47.686;16.584;2022-10-16T13:50:22;27.03;52.81
66576;SHT31;53428;47.686;16.584;2022-10-16T13:55:21;25.85;55.31
66576;SHT31;53428;47.686;16.584;2022-10-16T14:00:24;24.24;58.41
66576;SHT31;53428;47.686;16.584;2022-10-16T14:05:25;22.90;61.78
66576;SHT31;53428;47.686;16.584;2022-10-16T14:10:27;22.81;62.16
66576;SHT31;53428;47.686;16.584;2022-10-16T14:15:30;22.09;64.34
66576;SHT31;53428;47.686;16.584;2022-10-16T14:20:33;21.83;65.28
66576;SHT31;53428;47.686;16.584;2022-10-16T14:25:33;21.64;66.29
66576;SHT31;53428;47.686;16.584;2022-10-16T14:30:35;21.83;65.77
66576;SHT31;53428;47.686;16.584;2022-10-16T14:35:37;21.92;65.57
66576;SHT31;53428;47.686;16.584;2022-10-16T14:40:37;22.19;64.88
66576;SHT31;53428;47.686;16.584;2022-10-16T14:45:38;21.96;65.30
66576;SHT31;53428;47.686;16.584;2022-10-16T14:50:40;21.88;65.23
66576;SHT31;53428;47.686;16.584;2022-10-16T14:55:41;21.85;65.45
66576;SHT31;53428;47.686;16.584;2022-10-16T15:00:40;21.58;66.22
66576;SHT31;53428;47.686;16.584;2022-10-16T15:05:40;21.45;66.08
66576;SHT31;53428;47.686;16.584;2022-10-16T15:10:43;21.26;66.36
66576;SHT31;53428;47.686;16.584;2022-10-16T15:15:44;21.04;66.88
66576;SHT31;53428;47.686;16.584;2022-10-16T15:20:44;20.93;67.46
66576;SHT31;53428;47.686;16.584;2022-10-16T15:30:50;20.51;69.05
66576;SHT31;53428;47.686;16.584;2022-10-16T15:35:51;20.24;69.79
66576;SHT31;53428;47.686;16.584;2022-10-16T15:40:51;20.06;70.17
66576;SHT31;53428;47.686;16.584;2022-10-16T15:46:03;19.86;70.50
66576;SHT31;53428;47.686;16.584;2022-10-16T15:51:05;19.69;70.97
66576;SHT31;53428;47.686;16.584;2022-10-16T15:56:06;19.53;71.45
66576;SHT31;53428;47.686;16.584;2022-10-16T16:01:05;19.33;71.98
66576;SHT31;53428;47.686;16.584;2022-10-16T16:06:07;19.21;72.48
66576;SHT31;53428;47.686;16.584;2022-10-16T16:11:09;19.10;72.83
66576;SHT31;53428;47.686;16.584;2022-10-16T16:16:13;18.94;73.51
66576;SHT31;53428;47.686;16.584;2022-10-16T16:21:13;18.87;73.96
66576;SHT31;53428;47.686;16.584;2022-10-16T16:26:15;18.71;74.52
66576;SHT31;53428;47.686;16.584;2022-10-16T16:31:30;18.59;74.89
66576;SHT31;53428;47.686;16.584;2022-10-16T16:36:29;18.52;75.32
66576;SHT31;53428;47.686;16.584;2022-10-16T16:41:29;18.36;76.04
66576;SHT31;53428;47.686;16.584;2022-10-16T16:46:29;18.24;76.54
66576;SHT31;53428;47.686;16.584;2022-10-16T16:51:29;18.06;77.09
66576;SHT31;53428;47.686;16.584;2022-10-16T16:56:28;17.89;77.69
66576;SHT31;53428;47.686;16.584;2022-10-16T17:01:28;17.64;78.51
66576;SHT31;53428;47.686;16.584;2022-10-16T17:06:28;17.30;79.92
66576;SHT31;53428;47.686;16.584;2022-10-16T17:11:29;17.02;80.81
66576;SHT31;53428;47.686;16.584;2022-10-16T17:16:32;16.84;81.20
66576;SHT31;53428;47.686;16.584;2022-10-16T17:21:31;16.64;82.36
66576;SHT31;53428;47.686;16.584;2022-10-16T17:26:31;16.60;82.42
66576;SHT31;53428;47.686;16.584;2022-10-16T17:31:33;16.63;82.40
66576;SHT31;53428;47.686;16.584;2022-10-16T17:36:35;16.48;82.91
66576;SHT31;53428;47.686;16.584;2022-10-16T17:41:35;16.30;83.56
66576;SHT31;53428;47.686;16.584;2022-10-16T17:46:35;16.30;83.55
66576;SHT31;53428;47.686;16.584;2022-10-16T17:51:34;16.10;84.32
66576;SHT31;53428;47.686;16.584;2022-10-16T17:56:34;15.89;84.93
66576;SHT31;53428;47.686;16.584;2022-10-16T18:01:39;15.66;85.95
66576;SHT31;53428;47.686;16.584;2022-10-16T18:06:40;15.54;86.88
66576;SHT31;53428;47.686;16.584;2022-10-16T18:11:41;15.57;86.69
66576;SHT31;53428;47.686;16.584;2022-10-16T18:16:41;15.47;87.28
66576;SHT31;53428;47.686;16.584;2022-10-16T18:21:40;15.38;87.47
66576;SHT31;53428;47.686;16.584;2022-10-16T18:26:40;15.08;88.57
66576;SHT31;53428;47.686;16.584;2022-10-16T18:31:39;15.02;89.46
66576;SHT31;53428;47.686;16.584;2022-10-16T18:36:39;15.04;89.42
66576;SHT31;53428;47.686;16.584;2022-10-16T18:41:42;14.97;89.38
66576;SHT31;53428;47.686;16.584;2022-10-16T18:46:45;14.86;90.05
66576;SHT31;53428;47.686;16.584;2022-10-16T18:51:44;14.75;90.23
66576;SHT31;53428;47.686;16.584;2022-10-16T18:56:46;14.62;90.91
66576;SHT31;53428;47.686;16.584;2022-10-16T19:01:48;14.76;90.15
66576;SHT31;53428;47.686;16.584;2022-10-16T19:06:49;14.72;90.42
66576;SHT31;53428;47.686;16.584;2022-10-16T19:11:50;14.71;90.61
66576;SHT31;53428;47.686;16.584;2022-10-16T19:16:50;14.65;90.68
66576;SHT31;53428;47.686;16.584;2022-10-16T19:21:49;14.89;89.99
66576;SHT31;53428;47.686;16.584;2022-10-16T19:26:54;14.84;90.15
66576;SHT31;53428;47.686;16.584;2022-10-16T19:31:53;14.84;89.87
66576;SHT31;53428;47.686;16.584;2022-10-16T19:36:52;14.73;90.33
66576;SHT31;53428;47.686;16.584;2022-10-16T19:41:51;14.45;91.18
66576;SHT31;53428;47.686;16.584;2022-10-16T19:46:51;14.59;90.79
66576;SHT31;53428;47.686;16.584;2022-10-16T19:51:50;14.22;91.73
66576;SHT31;53428;47.686;16.584;2022-10-16T19:56:50;14.35;91.37
66576;SHT31;53428;47.686;16.584;2022-10-16T20:01:50;14.27;91.11
66576;SHT31;53428;47.686;16.584;2022-10-16T20:06:50;14.01;92.06
66576;SHT31;53428;47.686;16.584;2022-10-16T20:11:49;14.25;91.82
66576;SHT31;53428;47.686;16.584;2022-10-16T20:16:49;14.46;90.88
66576;SHT31;53428;47.686;16.584;2022-10-16T20:21:48;14.17;91.99
66576;SHT31;53428;47.686;16.584;2022-10-16T20:26:47;13.90;92.91
66576;SHT31;53428;47.686;16.584;2022-10-16T20:31:46;13.86;92.96
66576;SHT31;53428;47.686;16.584;2022-10-16T20:36:46;13.71;93.42
66576;SHT31;53428;47.686;16.584;2022-10-16T20:41:45;13.81;93.26
66576;SHT31;53428;47.686;16.584;2022-10-16T20:46:44;13.70;93.11
66576;SHT31;53428;47.686;16.584;2022-10-16T20:51:44;13.55;93.76
66576;SHT31;53428;47.686;16.584;2022-10-16T20:56:43;13.48;93.86
66576;SHT31;53428;47.686;16.584;2022-10-16T21:01:42;13.43;94.77
66576;SHT31;53428;47.686;16.584;2022-10-16T21:06:42;13.50;94.12
66576;SHT31;53428;47.686;16.584;2022-10-16T21:11:42;13.56;94.08
66576;SHT31;53428;47.686;16.584;2022-10-16T21:16:42;13.42;94.82
66576;SHT31;53428;47.686;16.584;2022-10-16T21:21:41;13.31;95.07
66576;SHT31;53428;47.686;16.584;2022-10-16T21:26:41;13.28;95.39
66576;SHT31;53428;47.686;16.584;2022-10-16T21:31:41;13.39;94.89
66576;SHT31;53428;47.686;16.584;2022-10-16T21:36:41;13.48;94.30
66576;SHT31;53428;47.686;16.584;2022-10-16T21:41:42;13.52;94.24
66576;SHT31;53428;47.686;16.584;2022-10-16T21:46:43;13.50;94.01
66576;SHT31;53428;47.686;16.584;2022-10-16T21:51:45;13.42;93.80
66576;SHT31;53428;47.686;16.584;2022-10-16T21:56:45;13.28;94.62
66576;SHT31;53428;47.686;16.584;2022-10-16T22:01:44;13.19;94.57
66576;SHT31;53428;47.686;16.584;2022-10-16T22:06:44;13.14;94.54
66576;SHT31;53428;47.686;16.584;2022-10-16T22:11:44;13.01;94.48
66576;SHT31;53428;47.686;16.584;2022-10-16T22:16:44;12.92;95.04
66576;SHT31;53428;47.686;16.584;2022-10-16T22:21:44;12.98;94.81
66576;SHT31;53428;47.686;16.584;2022-10-16T22:26:45;12.79;95.51
66576;SHT31;53428;47.686;16.584;2022-10-16T22:31:44;12.77;95.83
66576;SHT31;53428;47.686;16.584;2022-10-16T22:36:44;12.74;95.80
66576;SHT31;53428;47.686;16.584;2022-10-16T22:41:43;12.53;95.84
66576;SHT31;53428;47.686;16.584;2022-10-16T22:46:42;12.47;96.58
66576;SHT31;53428;47.686;16.584;2022-10-16T22:51:42;12.57;96.01
66576;SHT31;53428;47.686;16.584;2022-10-16T22:56:41;12.60;95.75
66576;SHT31;53428;47.686;16.584;2022-10-16T23:01:41;12.60;95.76
66576;SHT31;53428;47.686;16.584;2022-10-16T23:06:40;12.56;95.94
66576;SHT31;53428;47.686;16.584;2022-10-16T23:11:39;12.49;96.00
66576;SHT31;53428;47.686;16.584;2022-10-16T23:16:39;12.50;95.86
66576;SHT31;53428;47.686;16.584;2022-10-16T23:21:38;12.50;96.08
66576;SHT31;53428;47.686;16.584;2022-10-16T23:26:37;12.52;96.07
66576;SHT31;53428;47.686;16.584;2022-10-16T23:31:37;12.49;96.13
66576;SHT31;53428;47.686;16.584;2022-10-16T23:36:36;12.53;95.98
66576;SHT31;53428;47.686;16.584;2022-10-16T23:41:35;12.59;95.79
66576;SHT31;53428;47.686;16.584;2022-10-16T23:46:35;12.43;96.17
66576;SHT31;53428;47.686;16.584;2022-10-16T23:51:34;12.36;96.42
66576;SHT31;53428;47.686;16.584;2022-10-16T23:56:33;12.42;97.08
